Dionea — ISYR — position and weather

sailwx.info

Track history (hours):
 
Tides and Currents Weather Stations Pressure Air Temp Water Temp Dewpoint Dewpoint Depression Visibility Wind Speed Wind Dir Waves Ship Positions

Dionea

Last reported at 2017-Jul-19 09:57 UTC. Time now 2017-Jul-20 18:27 UTC.
Position N 40°54' E 009°40'.

Length 52 m; draft 2 m.

MMSI: 247159400.

Date/timePositionNaut miles runAvg speedWind from/ knotsBaromVisibWave heightAir tempDewpointWater temp
2017-Jul-19 09:57N 40°54' E 009°40'105 2.0
2017-Jul-17 06:06N 39°10' E 009°16'111.0
2017-Jul-17 06:00N 39°10' E 009°15'611.4
2017-Jul-17 05:30N 39°05' E 009°11'611.9
2017-Jul-17 05:00N 39°01' E 009°05'611.9
2017-Jul-17 04:28N 38°56' E 008°60'511.4
2017-Jul-17 04:00N 38°53' E 008°55'3 0.1
2017-Jul-16 05:25N 38°56' E 008°56'0 0.0
2017-Jul-16 04:59N 38°56' E 008°56'0 0.0
2017-Jul-16 04:26N 38°56' E 008°56'0 0.0
2017-Jul-16 03:52N 38°56' E 008°56'0 0.0
2017-Jul-16 03:27N 38°56' E 008°56'0 0.0
2017-Jul-16 03:00N 38°56' E 008°56'0 0.0
2017-Jul-16 02:30N 38°56' E 008°56'0 0.0
2017-Jul-16 01:59N 38°55' E 008°56'0 0.0
2017-Jul-16 01:30N 38°55' E 008°56'0 0.0
2017-Jul-16 00:59N 38°56' E 008°56'0 0.0
2017-Jul-16 00:30N 38°56' E 008°56'0 0.0
2017-Jul-16 00:00N 38°56' E 008°56'0 0.0
2017-Jul-15 23:29N 38°56' E 008°56'0 0.0
2017-Jul-15 23:00N 38°56' E 008°56'0 0.0
2017-Jul-15 22:30N 38°55' E 008°56'0 0.0
2017-Jul-15 21:59N 38°56' E 008°56'0 0.0
2017-Jul-15 21:30N 38°55' E 008°56'0 0.0
2017-Jul-15 21:00N 38°55' E 008°56'0 0.0
2017-Jul-15 20:30N 38°55' E 008°56'0 0.0
2017-Jul-15 19:58N 38°56' E 008°56'0 0.0
2017-Jul-15 19:30N 38°56' E 008°56'0 0.1
2017-Jul-15 18:59N 38°55' E 008°56'4 8.2
2017-Jul-15 18:30N 38°58' E 008°60'5 9.7
2017-Jul-15 17:59N 39°01' E 009°05'510.6
2017-Jul-15 17:29N 39°06' E 009°08'510.8
2017-Jul-15 17:00N 39°11' E 009°07'2 3.5
2017-Jul-15 16:29N 39°13' E 009°07'0 0.0
2017-Jul-15 15:59N 39°13' E 009°07'0 0.0
2017-Jul-15 15:29N 39°13' E 009°07'0 0.0
2017-Jul-15 14:59N 39°13' E 009°07'0 0.0
2017-Jul-15 13:59N 39°13' E 009°07'0 0.0
2017-Jul-15 13:29N 39°13' E 009°07'0 0.0
2017-Jul-15 12:58N 39°13' E 009°07'0 0.0
2017-Jul-15 12:28N 39°13' E 009°07'0 0.0
2017-Jul-15 11:58N 39°13' E 009°07'0 0.0
2017-Jul-15 11:28N 39°13' E 009°07'0 0.0
2017-Jul-15 10:58N 39°13' E 009°07'0 0.0
2017-Jul-15 10:28N 39°13' E 009°07'0 0.0
2017-Jul-15 09:58N 39°13' E 009°07'0 0.0
2017-Jul-15 09:28N 39°13' E 009°07'0 0.0
2017-Jul-15 08:58N 39°13' E 009°07'0 0.0
2017-Jul-15 08:28N 39°13' E 009°07'0 0.0
2017-Jul-15 07:58N 39°13' E 009°07'0 0.0
2017-Jul-15 07:28N 39°13' E 009°07'0 0.0
2017-Jul-15 06:58N 39°13' E 009°07'0 0.0
2017-Jul-15 06:28N 39°13' E 009°07'0 0.0
2017-Jul-15 05:58N 39°13' E 009°07'0 0.0
2017-Jul-15 05:28N 39°13' E 009°07'0 0.0
2017-Jul-15 04:58N 39°13' E 009°07'0 0.0
2017-Jul-15 04:28N 39°13' E 009°07'0 0.0
2017-Jul-15 03:58N 39°13' E 009°07'0 0.0
2017-Jul-15 03:28N 39°13' E 009°07'0 0.0
2017-Jul-15 02:58N 39°13' E 009°07'0 0.0
2017-Jul-15 02:28N 39°13' E 009°07'0 0.0
2017-Jul-15 01:58N 39°13' E 009°07'0 0.0
2017-Jul-15 01:28N 39°13' E 009°07'0 0.0
2017-Jul-15 00:58N 39°13' E 009°07'0 0.0
2017-Jul-15 00:28N 39°13' E 009°07'0 0.0
2017-Jul-14 23:58N 39°13' E 009°07'0 0.0
2017-Jul-14 23:28N 39°13' E 009°07'0 0.0
2017-Jul-14 22:58N 39°13' E 009°07'0 0.0
2017-Jul-14 22:28N 39°13' E 009°07'0 0.0
2017-Jul-14 21:58N 39°13' E 009°07'0 0.0
2017-Jul-14 21:28N 39°13' E 009°07'0 0.0
2017-Jul-14 20:58N 39°13' E 009°07'0 0.0
2017-Jul-14 20:28N 39°13' E 009°07'0 0.0
2017-Jul-14 19:58N 39°13' E 009°07'0 0.0
2017-Jul-14 19:28N 39°13' E 009°07'0 0.0
2017-Jul-14 18:58N 39°13' E 009°07'0 0.0
2017-Jul-14 18:28N 39°13' E 009°07'0 0.0
2017-Jul-14 17:58N 39°13' E 009°07'0 0.0
2017-Jul-14 17:28N 39°13' E 009°07'0 0.0
2017-Jul-14 16:58N 39°13' E 009°07'0 0.0
2017-Jul-14 16:28N 39°13' E 009°07'0 0.0
2017-Jul-14 15:58N 39°13' E 009°07'0 0.0
2017-Jul-14 15:28N 39°13' E 009°07'0 0.0
2017-Jul-14 14:58N 39°13' E 009°07'0 0.0
2017-Jul-14 14:28N 39°13' E 009°07'0 0.0
2017-Jul-14 13:58N 39°13' E 009°07'0 0.0
2017-Jul-14 13:28N 39°13' E 009°07'0 0.0
2017-Jul-14 12:58N 39°13' E 009°07'0 0.0
2017-Jul-14 12:28N 39°13' E 009°07'0 0.0
2017-Jul-14 11:58N 39°13' E 009°07'0 0.0
2017-Jul-14 11:28N 39°13' E 009°07'0 0.0
2017-Jul-14 10:58N 39°13' E 009°07'0 0.0
2017-Jul-14 10:28N 39°13' E 009°07'0 0.0
2017-Jul-14 09:58N 39°13' E 009°07'0 0.0
2017-Jul-14 09:30N 39°13' E 009°07'0 0.0
2017-Jul-14 09:00N 39°13' E 009°07'0 0.0
2017-Jul-14 08:30N 39°13' E 009°07'2 3.2
2017-Jul-14 08:00N 39°11' E 009°07'510.0
2017-Jul-14 07:29N 39°09' E 009°13'510.9
2017-Jul-14 07:00N 39°06' E 009°19'251 7.7
2017-Jul-12 22:11N 43°17' E 009°48'210.7
2017-Jul-12 21:59N 43°19' E 009°47'510.7
2017-Jul-12 21:30N 43°24' E 009°44'611.1
2017-Jul-12 20:58N 43°28' E 009°39'511.1
2017-Jul-12 20:30N 43°32' E 009°34'611.2
2017-Jul-12 20:00N 43°35' E 009°28'511.0
2017-Jul-12 19:30N 43°39' E 009°23'510.6
2017-Jul-12 19:00N 43°44' E 009°19'510.7
2017-Jul-12 18:30N 43°48' E 009°15'510.8
2017-Jul-12 18:00N 43°53' E 009°12'510.9
2017-Jul-12 17:30N 43°58' E 009°09'511.0
2017-Jul-12 17:01N 44°03' E 009°06'611.0
2017-Jul-12 16:30N 44°08' E 009°04'611.0
2017-Jul-12 15:59N 44°14' E 009°01'510.7
2017-Jul-12 15:30N 44°19' E 008°58'510.0
2017-Jul-12 15:00N 44°23' E 008°56'1 0.6
2017-Jul-12 14:00N 44°24' E 008°56'0 0.0
2017-Jul-12 13:30N 44°24' E 008°56'0 0.0
2017-Jul-12 13:00N 44°24' E 008°56'0 0.0
2017-Jul-12 12:30N 44°24' E 008°56'0 0.0
2017-Jul-12 12:00N 44°24' E 008°56'0 0.0
2017-Jul-12 11:30N 44°24' E 008°56'0 0.0
2017-Jul-12 11:00N 44°24' E 008°56'0 0.0
2017-Jul-12 10:30N 44°24' E 008°56'0 0.0
2017-Jul-12 10:00N 44°24' E 008°56'0 0.0
2017-Jul-12 09:30N 44°24' E 008°56'0 0.0
2017-Jul-12 09:00N 44°24' E 008°56'0 0.0
2017-Jul-12 08:30N 44°24' E 008°56'0 0.0
2017-Jul-12 08:00N 44°24' E 008°56'0 0.0
2017-Jul-12 07:30N 44°24' E 008°56'0 0.0
2017-Jul-12 07:00N 44°24' E 008°56'0 0.0
2017-Jul-12 06:30N 44°24' E 008°56'0 0.0
2017-Jul-12 06:00N 44°24' E 008°56'0 0.0
2017-Jul-12 05:30N 44°24' E 008°56'0 0.0
2017-Jul-12 05:00N 44°24' E 008°56'0 0.0
2017-Jul-12 04:30N 44°24' E 008°56'0 0.0
2017-Jul-12 04:00N 44°24' E 008°56'0 0.0
2017-Jul-12 03:30N 44°24' E 008°56'0 0.0
2017-Jul-12 03:00N 44°24' E 008°56'0 0.0
2017-Jul-12 02:30N 44°24' E 008°56'0 0.0
2017-Jul-12 02:00N 44°24' E 008°56'0 0.0
2017-Jul-12 01:30N 44°24' E 008°56'0 0.0
2017-Jul-12 01:00N 44°24' E 008°56'0 0.0
2017-Jul-12 00:30N 44°24' E 008°56'0 0.0
2017-Jul-12 00:00N 44°24' E 008°56'0 0.0
2017-Jul-11 23:30N 44°24' E 008°56'0 0.0
2017-Jul-11 23:00N 44°24' E 008°56'0 0.0
2017-Jul-11 22:30N 44°24' E 008°56'0 0.0
2017-Jul-11 22:00N 44°24' E 008°56'0 0.0
2017-Jul-11 21:30N 44°24' E 008°56'0 0.0
2017-Jul-11 21:00N 44°24' E 008°56'0 0.0
2017-Jul-11 20:30N 44°24' E 008°56'0 0.0
2017-Jul-11 20:00N 44°24' E 008°56'0 0.0
2017-Jul-11 19:30N 44°24' E 008°56'0 0.0
2017-Jul-11 19:00N 44°24' E 008°56'0 0.0
2017-Jul-11 18:30N 44°24' E 008°56'0 0.0
2017-Jul-11 18:00N 44°24' E 008°56'0 0.0
2017-Jul-11 17:30N 44°24' E 008°56'0 0.0
2017-Jul-11 17:00N 44°24' E 008°56'0 0.0
2017-Jul-11 16:30N 44°24' E 008°56'0 0.0
2017-Jul-11 16:00N 44°24' E 008°56'0 0.0
2017-Jul-11 15:30N 44°24' E 008°56'0 0.0
2017-Jul-11 15:00N 44°24' E 008°56'0 0.0
2017-Jul-11 14:30N 44°24' E 008°56'0 0.0
2017-Jul-11 14:00N 44°24' E 008°56'0 0.0
2017-Jul-11 13:30N 44°24' E 008°56'0 0.0
2017-Jul-11 13:00N 44°24' E 008°56'0 0.0
2017-Jul-11 12:30N 44°24' E 008°56'0 0.0
2017-Jul-11 12:00N 44°24' E 008°56'0 0.0
2017-Jul-11 11:30N 44°24' E 008°56'0 0.0
2017-Jul-11 11:00N 44°24' E 008°56'0 0.0
2017-Jul-11 10:30N 44°24' E 008°56'0 0.0
2017-Jul-11 10:00N 44°24' E 008°56'0 0.0
2017-Jul-11 09:30N 44°24' E 008°56'0 0.0
2017-Jul-11 09:00N 44°24' E 008°56'0 0.0
2017-Jul-11 08:30N 44°24' E 008°56'0 0.0
2017-Jul-11 08:00N 44°24' E 008°56'0 0.0
2017-Jul-11 07:30N 44°24' E 008°56'0 0.0
2017-Jul-11 07:00N 44°24' E 008°56'0 0.0
2017-Jul-11 06:30N 44°24' E 008°56'0 0.0
2017-Jul-11 06:00N 44°24' E 008°56'0 0.0
2017-Jul-11 05:30N 44°24' E 008°56'0 0.0
2017-Jul-11 05:00N 44°24' E 008°56'0 0.0
2017-Jul-11 04:30N 44°24' E 008°56'0 0.0
2017-Jul-11 04:00N 44°24' E 008°56'0 0.0
2017-Jul-11 03:30N 44°24' E 008°56'0 0.0
2017-Jul-11 03:00N 44°24' E 008°56'0 0.0
2017-Jul-11 02:30N 44°24' E 008°56'0 0.0
2017-Jul-11 02:00N 44°24' E 008°56'0 0.0
2017-Jul-11 01:30N 44°24' E 008°56'0 0.0
2017-Jul-11 01:00N 44°24' E 008°56'0 0.0
2017-Jul-11 00:30N 44°24' E 008°56'0 0.0
2017-Jul-11 00:00N 44°24' E 008°56'0 0.0
2017-Jul-10 23:30N 44°24' E 008°56'0 0.1
2017-Jul-10 23:00N 44°24' E 008°56'0 0.1
2017-Jul-10 22:30N 44°24' E 008°56'0 0.0
2017-Jul-10 22:00N 44°24' E 008°56'0 0.0
2017-Jul-10 21:30N 44°24' E 008°56'0 0.0
2017-Jul-10 21:00N 44°24' E 008°56'0 0.0
2017-Jul-10 20:30N 44°24' E 008°56'0 0.0
2017-Jul-10 20:00N 44°24' E 008°56'0 0.0
2017-Jul-10 19:30N 44°24' E 008°56'0 0.0
2017-Jul-10 19:00N 44°24' E 008°56'0 0.0
2017-Jul-10 18:30N 44°24' E 008°56'0 0.0
2017-Jul-10 18:00N 44°24' E 008°56'0 0.0
2017-Jul-10 17:30N 44°24' E 008°56'0 0.0
2017-Jul-10 17:00N 44°24' E 008°56'0 0.0
2017-Jul-10 16:30N 44°24' E 008°56'0 0.0
2017-Jul-10 16:00N 44°24' E 008°56'0 0.0
2017-Jul-10 15:30N 44°24' E 008°56'0 0.0
2017-Jul-10 15:00N 44°24' E 008°56'0 0.0
2017-Jul-10 14:30N 44°24' E 008°56'0 0.0
2017-Jul-10 14:00N 44°24' E 008°56'0 0.0
2017-Jul-10 13:30N 44°24' E 008°56'0 0.0
2017-Jul-10 13:00N 44°24' E 008°56'0 0.0
2017-Jul-10 12:30N 44°24' E 008°56'0 0.0
2017-Jul-10 12:00N 44°24' E 008°56'0 0.0
2017-Jul-10 11:30N 44°24' E 008°56'0 0.0
2017-Jul-10 11:00N 44°24' E 008°56'0 0.0
2017-Jul-10 10:30N 44°24' E 008°56'0 0.0
2017-Jul-10 10:00N 44°24' E 008°56'0 0.0
2017-Jul-10 09:30N 44°24' E 008°56'0 0.0
2017-Jul-10 09:00N 44°24' E 008°56'0 0.0
2017-Jul-10 08:30N 44°24' E 008°56'0 0.0
2017-Jul-10 08:00N 44°24' E 008°56'0 0.0
2017-Jul-10 07:30N 44°24' E 008°56'0 0.0
2017-Jul-10 07:00N 44°24' E 008°56'0 0.0
2017-Jul-10 06:30N 44°24' E 008°56'0 0.0
2017-Jul-10 06:00N 44°24' E 008°56'0 0.0
2017-Jul-10 05:30N 44°24' E 008°56'0 0.0
2017-Jul-10 05:00N 44°24' E 008°56'0 0.0
2017-Jul-10 04:30N 44°24' E 008°56'0 0.0
2017-Jul-10 04:00N 44°24' E 008°56'0 0.0
2017-Jul-10 03:30N 44°24' E 008°56'0 0.0
2017-Jul-10 03:00N 44°24' E 008°56'0 0.0
2017-Jul-10 02:30N 44°24' E 008°56'0 0.0
2017-Jul-10 02:00N 44°24' E 008°56'0 0.0
2017-Jul-10 01:30N 44°24' E 008°56'0 0.0
2017-Jul-10 01:00N 44°24' E 008°56'0 0.0
2017-Jul-10 00:30N 44°24' E 008°56'0 0.0
2017-Jul-10 00:00N 44°24' E 008°56'0 0.0
2017-Jul-09 23:30N 44°24' E 008°56'0 0.0
2017-Jul-09 23:00N 44°24' E 008°56'0 0.0
2017-Jul-09 22:30N 44°24' E 008°56'0 0.0
2017-Jul-09 22:00N 44°24' E 008°56'0 0.0
2017-Jul-09 21:30N 44°24' E 008°56'0 0.0
2017-Jul-09 21:00N 44°24' E 008°56'0 0.0
2017-Jul-09 20:30N 44°24' E 008°56'0 0.0
2017-Jul-09 20:00N 44°24' E 008°56'0 0.0
2017-Jul-09 19:30N 44°24' E 008°56'0 0.0
2017-Jul-09 19:00N 44°24' E 008°56'0 0.0
2017-Jul-09 18:30N 44°24' E 008°56'0 0.0
2017-Jul-09 18:00N 44°24' E 008°56'0 0.0
2017-Jul-09 17:30N 44°24' E 008°56'0 0.0
2017-Jul-09 17:00N 44°24' E 008°56'0 0.0
2017-Jul-09 16:30N 44°24' E 008°56'0 0.0
2017-Jul-09 16:00N 44°24' E 008°56'0 0.0
2017-Jul-09 15:30N 44°24' E 008°56'0 0.0
2017-Jul-09 15:00N 44°24' E 008°56'0 0.0
2017-Jul-09 14:30N 44°24' E 008°56'0 0.0
2017-Jul-09 14:00N 44°24' E 008°56'0 0.0
2017-Jul-09 13:30N 44°24' E 008°56'0 0.0
2017-Jul-09 13:00N 44°24' E 008°56'0 0.0
2017-Jul-09 12:30N 44°24' E 008°56'0 0.0
2017-Jul-09 12:00N 44°24' E 008°56'0 0.0
2017-Jul-09 11:30N 44°24' E 008°56'0 0.0
2017-Jul-09 11:00N 44°24' E 008°56'0 0.0
2017-Jul-09 10:30N 44°24' E 008°56'0 0.0
2017-Jul-09 10:00N 44°24' E 008°56'  
Track history (hours):
 
Tides and Currents Weather Stations Pressure Air Temp Water Temp Dewpoint Dewpoint Depression Visibility Wind Speed Wind Dir Waves Ship Positions

Dionea

Last reported at 2017-Jul-19 09:57 UTC. Time now 2017-Jul-20 18:27 UTC.
Position N 40°54' E 009°40'.

Length 52 m; draft 2 m.

MMSI: 247159400.

Date/timePositionNaut miles runAvg speedWind from/ knotsBaromVisibWave heightAir tempDewpointWater temp
2017-Jul-19 09:57N 40°54' E 009°40'105 2.0
2017-Jul-17 06:06N 39°10' E 009°16'111.0
2017-Jul-17 06:00N 39°10' E 009°15'611.4
2017-Jul-17 05:30N 39°05' E 009°11'611.9
2017-Jul-17 05:00N 39°01' E 009°05'611.9
2017-Jul-17 04:28N 38°56' E 008°60'511.4
2017-Jul-17 04:00N 38°53' E 008°55'3 0.1
2017-Jul-16 05:25N 38°56' E 008°56'0 0.0
2017-Jul-16 04:59N 38°56' E 008°56'0 0.0
2017-Jul-16 04:26N 38°56' E 008°56'0 0.0
2017-Jul-16 03:52N 38°56' E 008°56'0 0.0
2017-Jul-16 03:27N 38°56' E 008°56'0 0.0
2017-Jul-16 03:00N 38°56' E 008°56'0 0.0
2017-Jul-16 02:30N 38°56' E 008°56'0 0.0
2017-Jul-16 01:59N 38°55' E 008°56'0 0.0
2017-Jul-16 01:30N 38°55' E 008°56'0 0.0
2017-Jul-16 00:59N 38°56' E 008°56'0 0.0
2017-Jul-16 00:30N 38°56' E 008°56'0 0.0
2017-Jul-16 00:00N 38°56' E 008°56'0 0.0
2017-Jul-15 23:29N 38°56' E 008°56'0 0.0
2017-Jul-15 23:00N 38°56' E 008°56'0 0.0
2017-Jul-15 22:30N 38°55' E 008°56'0 0.0
2017-Jul-15 21:59N 38°56' E 008°56'0 0.0
2017-Jul-15 21:30N 38°55' E 008°56'0 0.0
2017-Jul-15 21:00N 38°55' E 008°56'0 0.0
2017-Jul-15 20:30N 38°55' E 008°56'0 0.0
2017-Jul-15 19:58N 38°56' E 008°56'0 0.0
2017-Jul-15 19:30N 38°56' E 008°56'0 0.1
2017-Jul-15 18:59N 38°55' E 008°56'4 8.2
2017-Jul-15 18:30N 38°58' E 008°60'5 9.7
2017-Jul-15 17:59N 39°01' E 009°05'510.6
2017-Jul-15 17:29N 39°06' E 009°08'510.8
2017-Jul-15 17:00N 39°11' E 009°07'2 3.5
2017-Jul-15 16:29N 39°13' E 009°07'0 0.0
2017-Jul-15 15:59N 39°13' E 009°07'0 0.0
2017-Jul-15 15:29N 39°13' E 009°07'0 0.0
2017-Jul-15 14:59N 39°13' E 009°07'0 0.0
2017-Jul-15 13:59N 39°13' E 009°07'0 0.0
2017-Jul-15 13:29N 39°13' E 009°07'0 0.0
2017-Jul-15 12:58N 39°13' E 009°07'0 0.0
2017-Jul-15 12:28N 39°13' E 009°07'0 0.0
2017-Jul-15 11:58N 39°13' E 009°07'0 0.0
2017-Jul-15 11:28N 39°13' E 009°07'0 0.0
2017-Jul-15 10:58N 39°13' E 009°07'0 0.0
2017-Jul-15 10:28N 39°13' E 009°07'0 0.0
2017-Jul-15 09:58N 39°13' E 009°07'0 0.0
2017-Jul-15 09:28N 39°13' E 009°07'0 0.0
2017-Jul-15 08:58N 39°13' E 009°07'0 0.0
2017-Jul-15 08:28N 39°13' E 009°07'0 0.0
2017-Jul-15 07:58N 39°13' E 009°07'0 0.0
2017-Jul-15 07:28N 39°13' E 009°07'0 0.0
2017-Jul-15 06:58N 39°13' E 009°07'0 0.0
2017-Jul-15 06:28N 39°13' E 009°07'0 0.0
2017-Jul-15 05:58N 39°13' E 009°07'0 0.0
2017-Jul-15 05:28N 39°13' E 009°07'0 0.0
2017-Jul-15 04:58N 39°13' E 009°07'0 0.0
2017-Jul-15 04:28N 39°13' E 009°07'0 0.0
2017-Jul-15 03:58N 39°13' E 009°07'0 0.0
2017-Jul-15 03:28N 39°13' E 009°07'0 0.0
2017-Jul-15 02:58N 39°13' E 009°07'0 0.0
2017-Jul-15 02:28N 39°13' E 009°07'0 0.0
2017-Jul-15 01:58N 39°13' E 009°07'0 0.0
2017-Jul-15 01:28N 39°13' E 009°07'0 0.0
2017-Jul-15 00:58N 39°13' E 009°07'0 0.0
2017-Jul-15 00:28N 39°13' E 009°07'0 0.0
2017-Jul-14 23:58N 39°13' E 009°07'0 0.0
2017-Jul-14 23:28N 39°13' E 009°07'0 0.0
2017-Jul-14 22:58N 39°13' E 009°07'0 0.0
2017-Jul-14 22:28N 39°13' E 009°07'0 0.0
2017-Jul-14 21:58N 39°13' E 009°07'0 0.0
2017-Jul-14 21:28N 39°13' E 009°07'0 0.0
2017-Jul-14 20:58N 39°13' E 009°07'0 0.0
2017-Jul-14 20:28N 39°13' E 009°07'0 0.0
2017-Jul-14 19:58N 39°13' E 009°07'0 0.0
2017-Jul-14 19:28N 39°13' E 009°07'0 0.0
2017-Jul-14 18:58N 39°13' E 009°07'0 0.0
2017-Jul-14 18:28N 39°13' E 009°07'0 0.0
2017-Jul-14 17:58N 39°13' E 009°07'0 0.0
2017-Jul-14 17:28N 39°13' E 009°07'0 0.0
2017-Jul-14 16:58N 39°13' E 009°07'0 0.0
2017-Jul-14 16:28N 39°13' E 009°07'0 0.0
2017-Jul-14 15:58N 39°13' E 009°07'0 0.0
2017-Jul-14 15:28N 39°13' E 009°07'0 0.0
2017-Jul-14 14:58N 39°13' E 009°07'0 0.0
2017-Jul-14 14:28N 39°13' E 009°07'0 0.0
2017-Jul-14 13:58N 39°13' E 009°07'0 0.0
2017-Jul-14 13:28N 39°13' E 009°07'0 0.0
2017-Jul-14 12:58N 39°13' E 009°07'0 0.0
2017-Jul-14 12:28N 39°13' E 009°07'0 0.0
2017-Jul-14 11:58N 39°13' E 009°07'0 0.0
2017-Jul-14 11:28N 39°13' E 009°07'0 0.0
2017-Jul-14 10:58N 39°13' E 009°07'0 0.0
2017-Jul-14 10:28N 39°13' E 009°07'0 0.0
2017-Jul-14 09:58N 39°13' E 009°07'0 0.0
2017-Jul-14 09:30N 39°13' E 009°07'0 0.0
2017-Jul-14 09:00N 39°13' E 009°07'0 0.0
2017-Jul-14 08:30N 39°13' E 009°07'2 3.2
2017-Jul-14 08:00N 39°11' E 009°07'510.0
2017-Jul-14 07:29N 39°09' E 009°13'510.9
2017-Jul-14 07:00N 39°06' E 009°19'251 7.7
2017-Jul-12 22:11N 43°17' E 009°48'210.7
2017-Jul-12 21:59N 43°19' E 009°47'510.7
2017-Jul-12 21:30N 43°24' E 009°44'611.1
2017-Jul-12 20:58N 43°28' E 009°39'511.1
2017-Jul-12 20:30N 43°32' E 009°34'611.2
2017-Jul-12 20:00N 43°35' E 009°28'511.0
2017-Jul-12 19:30N 43°39' E 009°23'510.6
2017-Jul-12 19:00N 43°44' E 009°19'510.7
2017-Jul-12 18:30N 43°48' E 009°15'510.8
2017-Jul-12 18:00N 43°53' E 009°12'510.9
2017-Jul-12 17:30N 43°58' E 009°09'511.0
2017-Jul-12 17:01N 44°03' E 009°06'611.0
2017-Jul-12 16:30N 44°08' E 009°04'611.0
2017-Jul-12 15:59N 44°14' E 009°01'510.7
2017-Jul-12 15:30N 44°19' E 008°58'510.0
2017-Jul-12 15:00N 44°23' E 008°56'1 0.6
2017-Jul-12 14:00N 44°24' E 008°56'0 0.0
2017-Jul-12 13:30N 44°24' E 008°56'0 0.0
2017-Jul-12 13:00N 44°24' E 008°56'0 0.0
2017-Jul-12 12:30N 44°24' E 008°56'0 0.0
2017-Jul-12 12:00N 44°24' E 008°56'0 0.0
2017-Jul-12 11:30N 44°24' E 008°56'0 0.0
2017-Jul-12 11:00N 44°24' E 008°56'0 0.0
2017-Jul-12 10:30N 44°24' E 008°56'0 0.0
2017-Jul-12 10:00N 44°24' E 008°56'0 0.0
2017-Jul-12 09:30N 44°24' E 008°56'0 0.0
2017-Jul-12 09:00N 44°24' E 008°56'0 0.0
2017-Jul-12 08:30N 44°24' E 008°56'0 0.0
2017-Jul-12 08:00N 44°24' E 008°56'0 0.0
2017-Jul-12 07:30N 44°24' E 008°56'0 0.0
2017-Jul-12 07:00N 44°24' E 008°56'0 0.0
2017-Jul-12 06:30N 44°24' E 008°56'0 0.0
2017-Jul-12 06:00N 44°24' E 008°56'0 0.0
2017-Jul-12 05:30N 44°24' E 008°56'0 0.0
2017-Jul-12 05:00N 44°24' E 008°56'0 0.0
2017-Jul-12 04:30N 44°24' E 008°56'0 0.0
2017-Jul-12 04:00N 44°24' E 008°56'0 0.0
2017-Jul-12 03:30N 44°24' E 008°56'0 0.0
2017-Jul-12 03:00N 44°24' E 008°56'0 0.0
2017-Jul-12 02:30N 44°24' E 008°56'0 0.0
2017-Jul-12 02:00N 44°24' E 008°56'0 0.0
2017-Jul-12 01:30N 44°24' E 008°56'0 0.0
2017-Jul-12 01:00N 44°24' E 008°56'0 0.0
2017-Jul-12 00:30N 44°24' E 008°56'0 0.0
2017-Jul-12 00:00N 44°24' E 008°56'0 0.0
2017-Jul-11 23:30N 44°24' E 008°56'0 0.0
2017-Jul-11 23:00N 44°24' E 008°56'0 0.0
2017-Jul-11 22:30N 44°24' E 008°56'0 0.0
2017-Jul-11 22:00N 44°24' E 008°56'0 0.0
2017-Jul-11 21:30N 44°24' E 008°56'0 0.0
2017-Jul-11 21:00N 44°24' E 008°56'0 0.0
2017-Jul-11 20:30N 44°24' E 008°56'0 0.0
2017-Jul-11 20:00N 44°24' E 008°56'0 0.0
2017-Jul-11 19:30N 44°24' E 008°56'0 0.0
2017-Jul-11 19:00N 44°24' E 008°56'0 0.0
2017-Jul-11 18:30N 44°24' E 008°56'0 0.0
2017-Jul-11 18:00N 44°24' E 008°56'0 0.0
2017-Jul-11 17:30N 44°24' E 008°56'0 0.0
2017-Jul-11 17:00N 44°24' E 008°56'0 0.0
2017-Jul-11 16:30N 44°24' E 008°56'0 0.0
2017-Jul-11 16:00N 44°24' E 008°56'0 0.0
2017-Jul-11 15:30N 44°24' E 008°56'0 0.0
2017-Jul-11 15:00N 44°24' E 008°56'0 0.0
2017-Jul-11 14:30N 44°24' E 008°56'0 0.0
2017-Jul-11 14:00N 44°24' E 008°56'0 0.0
2017-Jul-11 13:30N 44°24' E 008°56'0 0.0
2017-Jul-11 13:00N 44°24' E 008°56'0 0.0
2017-Jul-11 12:30N 44°24' E 008°56'0 0.0
2017-Jul-11 12:00N 44°24' E 008°56'0 0.0
2017-Jul-11 11:30N 44°24' E 008°56'0 0.0
2017-Jul-11 11:00N 44°24' E 008°56'0 0.0
2017-Jul-11 10:30N 44°24' E 008°56'0 0.0
2017-Jul-11 10:00N 44°24' E 008°56'0 0.0
2017-Jul-11 09:30N 44°24' E 008°56'0 0.0
2017-Jul-11 09:00N 44°24' E 008°56'0 0.0
2017-Jul-11 08:30N 44°24' E 008°56'0 0.0
2017-Jul-11 08:00N 44°24' E 008°56'0 0.0
2017-Jul-11 07:30N 44°24' E 008°56'0 0.0
2017-Jul-11 07:00N 44°24' E 008°56'0 0.0
2017-Jul-11 06:30N 44°24' E 008°56'0 0.0
2017-Jul-11 06:00N 44°24' E 008°56'0 0.0
2017-Jul-11 05:30N 44°24' E 008°56'0 0.0
2017-Jul-11 05:00N 44°24' E 008°56'0 0.0
2017-Jul-11 04:30N 44°24' E 008°56'0 0.0
2017-Jul-11 04:00N 44°24' E 008°56'0 0.0
2017-Jul-11 03:30N 44°24' E 008°56'0 0.0
2017-Jul-11 03:00N 44°24' E 008°56'0 0.0
2017-Jul-11 02:30N 44°24' E 008°56'0 0.0
2017-Jul-11 02:00N 44°24' E 008°56'0 0.0
2017-Jul-11 01:30N 44°24' E 008°56'0 0.0
2017-Jul-11 01:00N 44°24' E 008°56'0 0.0
2017-Jul-11 00:30N 44°24' E 008°56'0 0.0
2017-Jul-11 00:00N 44°24' E 008°56'0 0.0
2017-Jul-10 23:30N 44°24' E 008°56'0 0.1
2017-Jul-10 23:00N 44°24' E 008°56'0 0.1
2017-Jul-10 22:30N 44°24' E 008°56'0 0.0
2017-Jul-10 22:00N 44°24' E 008°56'0 0.0
2017-Jul-10 21:30N 44°24' E 008°56'0 0.0
2017-Jul-10 21:00N 44°24' E 008°56'0 0.0
2017-Jul-10 20:30N 44°24' E 008°56'0 0.0
2017-Jul-10 20:00N 44°24' E 008°56'0 0.0
2017-Jul-10 19:30N 44°24' E 008°56'0 0.0
2017-Jul-10 19:00N 44°24' E 008°56'0 0.0
2017-Jul-10 18:30N 44°24' E 008°56'0 0.0
2017-Jul-10 18:00N 44°24' E 008°56'0 0.0
2017-Jul-10 17:30N 44°24' E 008°56'0 0.0
2017-Jul-10 17:00N 44°24' E 008°56'0 0.0
2017-Jul-10 16:30N 44°24' E 008°56'0 0.0
2017-Jul-10 16:00N 44°24' E 008°56'0 0.0
2017-Jul-10 15:30N 44°24' E 008°56'0 0.0
2017-Jul-10 15:00N 44°24' E 008°56'0 0.0
2017-Jul-10 14:30N 44°24' E 008°56'0 0.0
2017-Jul-10 14:00N 44°24' E 008°56'0 0.0
2017-Jul-10 13:30N 44°24' E 008°56'0 0.0
2017-Jul-10 13:00N 44°24' E 008°56'0 0.0
2017-Jul-10 12:30N 44°24' E 008°56'0 0.0
2017-Jul-10 12:00N 44°24' E 008°56'0 0.0
2017-Jul-10 11:30N 44°24' E 008°56'0 0.0
2017-Jul-10 11:00N 44°24' E 008°56'0 0.0
2017-Jul-10 10:30N 44°24' E 008°56'0 0.0
2017-Jul-10 10:00N 44°24' E 008°56'0 0.0
2017-Jul-10 09:30N 44°24' E 008°56'0 0.0
2017-Jul-10 09:00N 44°24' E 008°56'0 0.0
2017-Jul-10 08:30N 44°24' E 008°56'0 0.0
2017-Jul-10 08:00N 44°24' E 008°56'0 0.0
2017-Jul-10 07:30N 44°24' E 008°56'0 0.0
2017-Jul-10 07:00N 44°24' E 008°56'0 0.0
2017-Jul-10 06:30N 44°24' E 008°56'0 0.0
2017-Jul-10 06:00N 44°24' E 008°56'0 0.0
2017-Jul-10 05:30N 44°24' E 008°56'0 0.0
2017-Jul-10 05:00N 44°24' E 008°56'0 0.0
2017-Jul-10 04:30N 44°24' E 008°56'0 0.0
2017-Jul-10 04:00N 44°24' E 008°56'0 0.0
2017-Jul-10 03:30N 44°24' E 008°56'0 0.0
2017-Jul-10 03:00N 44°24' E 008°56'0 0.0
2017-Jul-10 02:30N 44°24' E 008°56'0 0.0
2017-Jul-10 02:00N 44°24' E 008°56'0 0.0
2017-Jul-10 01:30N 44°24' E 008°56'0 0.0
2017-Jul-10 01:00N 44°24' E 008°56'0 0.0
2017-Jul-10 00:30N 44°24' E 008°56'0 0.0
2017-Jul-10 00:00N 44°24' E 008°56'0 0.0
2017-Jul-09 23:30N 44°24' E 008°56'0 0.0
2017-Jul-09 23:00N 44°24' E 008°56'0 0.0
2017-Jul-09 22:30N 44°24' E 008°56'0 0.0
2017-Jul-09 22:00N 44°24' E 008°56'0 0.0
2017-Jul-09 21:30N 44°24' E 008°56'0 0.0
2017-Jul-09 21:00N 44°24' E 008°56'0 0.0
2017-Jul-09 20:30N 44°24' E 008°56'0 0.0
2017-Jul-09 20:00N 44°24' E 008°56'0 0.0
2017-Jul-09 19:30N 44°24' E 008°56'0 0.0
2017-Jul-09 19:00N 44°24' E 008°56'0 0.0
2017-Jul-09 18:30N 44°24' E 008°56'0 0.0
2017-Jul-09 18:00N 44°24' E 008°56'0 0.0
2017-Jul-09 17:30N 44°24' E 008°56'0 0.0
2017-Jul-09 17:00N 44°24' E 008°56'0 0.0
2017-Jul-09 16:30N 44°24' E 008°56'0 0.0
2017-Jul-09 16:00N 44°24' E 008°56'0 0.0
2017-Jul-09 15:30N 44°24' E 008°56'0 0.0
2017-Jul-09 15:00N 44°24' E 008°56'0 0.0
2017-Jul-09 14:30N 44°24' E 008°56'0 0.0
2017-Jul-09 14:00N 44°24' E 008°56'0 0.0
2017-Jul-09 13:30N 44°24' E 008°56'0 0.0
2017-Jul-09 13:00N 44°24' E 008°56'0 0.0
2017-Jul-09 12:30N 44°24' E 008°56'0 0.0
2017-Jul-09 12:00N 44°24' E 008°56'0 0.0
2017-Jul-09 11:30N 44°24' E 008°56'0 0.0
2017-Jul-09 11:00N 44°24' E 008°56'0 0.0
2017-Jul-09 10:30N 44°24' E 008°56'0 0.0
2017-Jul-09 10:00N 44°24' E 008°56'  

Dump ship's entire track history